sensor_id;sensor_type;location;lat;lon;timestamp;temperature;humidity
73665;DHT22;61964;52.052;4.474;2023-08-06T00:00:15;16.79;84.12
73665;DHT22;61964;52.052;4.474;2023-08-06T00:02:41;16.82;84.06
73665;DHT22;61964;52.052;4.474;2023-08-06T00:05:07;16.82;84.28
73665;DHT22;61964;52.052;4.474;2023-08-06T00:07:32;16.87;84.29
73665;DHT22;61964;52.052;4.474;2023-08-06T00:09:58;16.94;84.08
73665;DHT22;61964;52.052;4.474;2023-08-06T00:15:05;17.00;83.94
73665;DHT22;61964;52.052;4.474;2023-08-06T00:17:31;16.99;83.77
73665;DHT22;61964;52.052;4.474;2023-08-06T00:19:57;17.00;83.49
73665;DHT22;61964;52.052;4.474;2023-08-06T00:22:23;16.94;83.68
73665;DHT22;61964;52.052;4.474;2023-08-06T00:24:49;16.97;83.83
73665;DHT22;61964;52.052;4.474;2023-08-06T00:27:14;17.03;83.85
73665;DHT22;61964;52.052;4.474;2023-08-06T00:29:40;17.04;83.62
73665;DHT22;61964;52.052;4.474;2023-08-06T00:32:06;17.09;83.76
73665;DHT22;61964;52.052;4.474;2023-08-06T00:34:32;17.06;83.62
73665;DHT22;61964;52.052;4.474;2023-08-06T00:36:57;17.09;83.56
73665;DHT22;61964;52.052;4.474;2023-08-06T00:39:23;17.07;83.38
73665;DHT22;61964;52.052;4.474;2023-08-06T00:41:49;17.06;83.67
73665;DHT22;61964;52.052;4.474;2023-08-06T00:44:30;17.13;83.71
73665;DHT22;61964;52.052;4.474;2023-08-06T00:46:56;17.13;83.56
73665;DHT22;61964;52.052;4.474;2023-08-06T00:49:22;17.13;83.60
73665;DHT22;61964;52.052;4.474;2023-08-06T00:51:48;17.16;83.56
73665;DHT22;61964;52.052;4.474;2023-08-06T00:54:15;17.17;83.43
73665;DHT22;61964;52.052;4.474;2023-08-06T00:56:42;17.17;83.34
73665;DHT22;61964;52.052;4.474;2023-08-06T00:59:10;17.17;83.47
73665;DHT22;61964;52.052;4.474;2023-08-06T01:01:36;17.20;83.48
73665;DHT22;61964;52.052;4.474;2023-08-06T01:04:03;17.17;83.23
73665;DHT22;61964;52.052;4.474;2023-08-06T01:06:59;17.16;83.36
73665;DHT22;61964;52.052;4.474;2023-08-06T01:09:55;17.16;83.51
73665;DHT22;61964;52.052;4.474;2023-08-06T01:15:42;17.07;83.94
73665;DHT22;61964;52.052;4.474;2023-08-06T01:18:10;17.06;84.11
73665;DHT22;61964;52.052;4.474;2023-08-06T01:20:36;17.06;84.05
73665;DHT22;61964;52.052;4.474;2023-08-06T01:23:02;16.97;84.15
73665;DHT22;61964;52.052;4.474;2023-08-06T01:25:35;17.00;84.26
73665;DHT22;61964;52.052;4.474;2023-08-06T01:28:13;16.93;84.30
73665;DHT22;61964;52.052;4.474;2023-08-06T01:30:42;16.92;84.28
73665;DHT22;61964;52.052;4.474;2023-08-06T01:33:16;16.92;84.51
73665;DHT22;61964;52.052;4.474;2023-08-06T01:35:44;16.92;84.56
73665;DHT22;61964;52.052;4.474;2023-08-06T01:38:11;16.93;84.52
73665;DHT22;61964;52.052;4.474;2023-08-06T01:40:40;16.93;84.34
73665;DHT22;61964;52.052;4.474;2023-08-06T01:43:06;16.94;84.20
73665;DHT22;61964;52.052;4.474;2023-08-06T01:45:31;16.89;84.10
73665;DHT22;61964;52.052;4.474;2023-08-06T01:47:57;16.89;84.19
73665;DHT22;61964;52.052;4.474;2023-08-06T01:50:23;16.90;84.31
73665;DHT22;61964;52.052;4.474;2023-08-06T01:52:49;16.92;84.37
73665;DHT22;61964;52.052;4.474;2023-08-06T01:55:14;16.93;84.39
73665;DHT22;61964;52.052;4.474;2023-08-06T01:57:40;16.96;84.44
73665;DHT22;61964;52.052;4.474;2023-08-06T02:00:21;16.96;84.36
73665;DHT22;61964;52.052;4.474;2023-08-06T02:02:47;17.02;84.26
73665;DHT22;61964;52.052;4.474;2023-08-06T02:05:13;16.97;84.12
73665;DHT22;61964;52.052;4.474;2023-08-06T02:07:38;16.97;84.24
73665;DHT22;61964;52.052;4.474;2023-08-06T02:10:05;16.92;84.35
73665;DHT22;61964;52.052;4.474;2023-08-06T02:12:31;16.84;84.59
73665;DHT22;61964;52.052;4.474;2023-08-06T02:14:56;16.82;84.50
73665;DHT22;61964;52.052;4.474;2023-08-06T02:17:22;16.79;84.56
73665;DHT22;61964;52.052;4.474;2023-08-06T02:19:48;16.79;84.77
73665;DHT22;61964;52.052;4.474;2023-08-06T02:22:14;16.80;84.66
73665;DHT22;61964;52.052;4.474;2023-08-06T02:24:39;16.80;84.31
73665;DHT22;61964;52.052;4.474;2023-08-06T02:27:05;16.75;84.45
73665;DHT22;61964;52.052;4.474;2023-08-06T02:29:31;16.70;84.67
73665;DHT22;61964;52.052;4.474;2023-08-06T02:31:57;16.70;84.74
73665;DHT22;61964;52.052;4.474;2023-08-06T02:34:23;16.70;84.84
73665;DHT22;61964;52.052;4.474;2023-08-06T02:36:48;16.72;84.98
